Sitiawan, Malaysia
Current Conditions -  °F | °C
As of 7:00 PM on Thursday 23 Oct 2014 (Local Time) from WMBA Reporting Station
Broken Clouds Broken Clouds  
Wind Chill: 82°   Ceiling: 26000
Heat Index: 89°   Visibility: 6mi
Dew Point: 75°   Wind: 3mph
Humidity: 79%   Direction: 310°NW
Pressure: 29.8"   Gusts: NA
Location:  4.22°N, 100.7°E
Report Text: WMBA 231100Z 31003KT 9999 FEW022 BKN260 28/24 Q1009
Loading
Personal Weather Stations






























Interactive Weather Map
Tropical Storm Tracking
New forecast layout! Learn more

10-Day Weather Forecast

Advertisements
Track Severe Weather on mobile